createdAt,value
2017-06-13T00:00:00.196Z,65.84
2017-06-13T00:00:04.849Z,65.52
2017-06-13T00:00:09.271Z,65.56
2017-06-13T00:00:13.608Z,65.84
2017-06-13T00:00:18.031Z,65.56
2017-06-13T00:00:22.219Z,65.56
2017-06-13T00:00:26.640Z,65.56
2017-06-13T00:00:31.070Z,65.56
2017-06-13T00:00:35.386Z,65.56
2017-06-13T00:00:39.805Z,65.65
2017-06-13T00:00:44.229Z,66.23
2017-06-13T00:00:48.646Z,66.03
2017-06-13T00:00:52.832Z,65.36
2017-06-13T00:00:57.256Z,66.23
2017-06-13T00:01:01.718Z,66.33
2017-06-13T00:01:06.140Z,66.03
2017-06-13T00:01:10.559Z,66.33
2017-06-13T00:01:14.866Z,66.03
2017-06-13T00:01:19.174Z,66.33
2017-06-13T00:01:23.601Z,66.03
2017-06-13T00:01:28.020Z,66.03
2017-06-13T00:01:32.437Z,65.94
2017-06-13T00:01:36.747Z,65.84
2017-06-13T00:01:41.186Z,65.94
2017-06-13T00:01:45.616Z,65.65
2017-06-13T00:01:50.038Z,65.65
2017-06-13T00:01:54.357Z,66.13
2017-06-13T00:01:58.666Z,66.13
2017-06-13T00:02:03.338Z,66.52
2017-06-13T00:02:07.769Z,65.84
2017-06-13T00:02:12.194Z,65.75
2017-06-13T00:02:16.494Z,66.33
2017-06-13T00:02:20.916Z,66.23
2017-06-13T00:02:25.346Z,66.52
2017-06-13T00:02:29.777Z,66.13
2017-06-13T00:02:34.198Z,66.13
2017-06-13T00:02:38.504Z,66.03
2017-06-13T00:02:42.925Z,66.03
2017-06-13T00:02:47.346Z,66.33
2017-06-13T00:02:51.764Z,66.23
2017-06-13T00:02:56.107Z,66.42
2017-06-13T00:03:00.412Z,66.03
2017-06-13T00:03:04.887Z,66.23
2017-06-13T00:03:09.189Z,66.23
2017-06-13T00:03:13.492Z,66.03
2017-06-13T00:03:17.918Z,66.23
2017-06-13T00:03:22.234Z,66.33
2017-06-13T00:03:26.537Z,66.03
2017-06-13T00:03:30.961Z,66.23
2017-06-13T00:03:35.266Z,66.03
2017-06-13T00:03:39.570Z,66.42
2017-06-13T00:03:43.996Z,66.52
2017-06-13T00:03:48.416Z,66.23
2017-06-13T00:03:52.844Z,66.03
2017-06-13T00:03:57.146Z,66.03
2017-06-13T00:04:01.565Z,66.03
2017-06-13T00:04:05.990Z,66.13
2017-06-13T00:04:10.180Z,66.03
2017-06-13T00:04:14.598Z,66.03
2017-06-13T00:04:19.018Z,66.61
2017-06-13T00:04:23.437Z,66.23
2017-06-13T00:04:27.862Z,66.23
2017-06-13T00:04:32.319Z,66.23
2017-06-13T00:04:36.625Z,66.23
2017-06-13T00:04:40.928Z,66.13
2017-06-13T00:04:45.358Z,66.03
2017-06-13T00:04:49.782Z,66.03
2017-06-13T00:04:54.084Z,65.94
2017-06-13T00:04:58.157Z,65.94
2017-06-13T00:05:02.581Z,65.94
2017-06-13T00:05:06.769Z,66.1
2017-06-13T00:05:11.195Z,66.33
2017-06-13T00:05:15.615Z,66.03
2017-06-13T00:05:20.042Z,66.03
2017-06-13T00:05:24.476Z,66.03
2017-06-13T00:05:28.897Z,66.03
2017-06-13T00:05:33.204Z,66.23
2017-06-13T00:05:37.625Z,66.23
2017-06-13T00:05:42.052Z,66.1
2017-06-13T00:05:46.244Z,65.84
2017-06-13T00:05:50.670Z,65.94
2017-06-13T00:05:54.977Z,65.94
2017-06-13T00:05:59.281Z,66.03
2017-06-13T00:06:03.704Z,66.03
2017-06-13T00:06:07.887Z,66.1
2017-06-13T00:06:12.199Z,66
2017-06-13T00:06:16.503Z,65.94
2017-06-13T00:06:20.934Z,65.84
2017-06-13T00:06:25.235Z,65.84
2017-06-13T00:06:29.657Z,65.91
2017-06-13T00:06:33.977Z,66.1
2017-06-13T00:06:38.413Z,65.91
2017-06-13T00:06:42.722Z,65.62
2017-06-13T00:06:47.147Z,65.72
2017-06-13T00:06:51.455Z,65.81
2017-06-13T00:06:55.892Z,65.81
2017-06-13T00:07:00.114Z,65.81
2017-06-13T00:07:04.594Z,66.19
2017-06-13T00:07:09.027Z,66.29
2017-06-13T00:07:13.215Z,66.39
2017-06-13T00:07:17.644Z,66.19
2017-06-13T00:07:21.961Z,66.29
2017-06-13T00:07:26.389Z,66.29
2017-06-13T00:07:30.815Z,66.39
2017-06-13T00:07:35.123Z,66.39
2017-06-13T00:07:39.428Z,66.29
2017-06-13T00:07:43.863Z,66.29
2017-06-13T00:07:48.293Z,66.1
2017-06-13T00:07:52.594Z,66.29
2017-06-13T00:07:57.015Z,66.1
2017-06-13T00:08:01.324Z,66.1
2017-06-13T00:08:05.927Z,66.19
2017-06-13T00:08:10.123Z,66.39
2017-06-13T00:08:14.571Z,66.58
2017-06-13T00:08:18.758Z,66.39
2017-06-13T00:08:23.178Z,66.58
2017-06-13T00:08:27.363Z,66.58
2017-06-13T00:08:31.669Z,66.58
2017-06-13T00:08:35.859Z,66.77
2017-06-13T00:08:40.169Z,66.49
2017-06-13T00:08:44.596Z,66.67
2017-06-13T00:08:49.017Z,66.58
2017-06-13T00:08:53.318Z,66.58
2017-06-13T00:08:57.758Z,67.06
2017-06-13T00:09:02.369Z,66.77
2017-06-13T00:09:06.798Z,66.67
2017-06-13T00:09:11.100Z,66.29
2017-06-13T00:09:15.518Z,66.67
2017-06-13T00:09:19.945Z,66.49
2017-06-13T00:09:24.370Z,66.86
2017-06-13T00:09:28.686Z,66.86
2017-06-13T00:09:32.987Z,66.96
2017-06-13T00:09:37.406Z,66.67
2017-06-13T00:09:41.713Z,66.96
2017-06-13T00:09:46.141Z,66.96
2017-06-13T00:09:50.563Z,66.96
2017-06-13T00:09:54.986Z,66.86
2017-06-13T00:09:59.290Z,66.86
2017-06-13T00:10:03.596Z,66.86
2017-06-13T00:10:07.783Z,66.86
2017-06-13T00:10:12.098Z,66.96
2017-06-13T00:10:16.519Z,66.96
2017-06-13T00:10:20.826Z,66.58
2017-06-13T00:10:25.028Z,66.67
2017-06-13T00:10:29.449Z,66.86
2017-06-13T00:10:33.877Z,66.77
2017-06-13T00:10:38.299Z,66.86
2017-06-13T00:10:42.723Z,66.86
2017-06-13T00:10:47.145Z,66.86
2017-06-13T00:10:51.566Z,67.06
2017-06-13T00:10:55.993Z,66.96
2017-06-13T00:11:00.331Z,67.16
2017-06-13T00:11:04.736Z,66.96
2017-06-13T00:11:09.156Z,67.16
2017-06-13T00:11:13.574Z,66.96
2017-06-13T00:11:17.883Z,66.77
2017-06-13T00:11:22.316Z,66.96
2017-06-13T00:11:26.630Z,66.77
2017-06-13T00:11:31.047Z,67.16
2017-06-13T00:11:35.351Z,67.16
2017-06-13T00:11:39.657Z,67.25
2017-06-13T00:11:43.966Z,67.35
2017-06-13T00:11:48.391Z,67.16
2017-06-13T00:11:52.812Z,67.25
2017-06-13T00:11:57.114Z,67.35
2017-06-13T00:12:01.416Z,67.35
2017-06-13T00:12:05.716Z,67.35
2017-06-13T00:12:10.023Z,67.44
2017-06-13T00:12:14.449Z,67.25
2017-06-13T00:12:18.750Z,67.35
2017-06-13T00:12:23.177Z,67.25
2017-06-13T00:12:27.480Z,67.44
2017-06-13T00:12:31.911Z,67.44
2017-06-13T00:12:36.361Z,67.44
2017-06-13T00:12:40.783Z,67.35
2017-06-13T00:12:45.204Z,67.35
2017-06-13T00:12:49.628Z,67.44
2017-06-13T00:12:53.939Z,67.44
2017-06-13T00:12:58.252Z,67.16
2017-06-13T00:13:02.442Z,67.06
2017-06-13T00:13:06.752Z,67.16
2017-06-13T00:13:11.052Z,67.25
2017-06-13T00:13:15.474Z,67.25
2017-06-13T00:13:19.784Z,67.25
2017-06-13T00:13:24.207Z,67.35
2017-06-13T00:13:28.627Z,67.25
2017-06-13T00:13:33.057Z,67.16
2017-06-13T00:13:37.483Z,67.25
2017-06-13T00:13:41.671Z,67.25
2017-06-13T00:13:46.143Z,67.06
2017-06-13T00:13:50.574Z,66.96
2017-06-13T00:13:54.991Z,67.06
2017-06-13T00:13:59.178Z,67.06
2017-06-13T00:14:03.479Z,67.06
2017-06-13T00:14:07.678Z,67.06
2017-06-13T00:14:12.108Z,67.35
2017-06-13T00:14:16.528Z,67.25
2017-06-13T00:14:20.715Z,67.25
2017-06-13T00:14:25.142Z,67.06
2017-06-13T00:14:29.574Z,67.25
2017-06-13T00:14:34.034Z,67.35
2017-06-13T00:14:38.453Z,67.16
2017-06-13T00:14:42.759Z,67.44
2017-06-13T00:14:47.179Z,67.35
2017-06-13T00:14:51.598Z,67.83
2017-06-13T00:14:55.904Z,67.35
2017-06-13T00:15:00.331Z,67.16
2017-06-13T00:15:04.687Z,67.73
2017-06-13T00:15:09.113Z,67.16
2017-06-13T00:15:13.539Z,67.83
2017-06-13T00:15:17.968Z,67.83
2017-06-13T00:15:22.278Z,67.25
2017-06-13T00:15:26.699Z,67.73
2017-06-13T00:15:31.122Z,67.35
2017-06-13T00:15:35.544Z,67.25
2017-06-13T00:15:39.961Z,67.25
2017-06-13T00:15:44.274Z,67.92
2017-06-13T00:15:48.587Z,67.83
2017-06-13T00:15:53.011Z,67.73
2017-06-13T00:15:57.436Z,67.35
2017-06-13T00:16:02.157Z,67.54
2017-06-13T00:16:06.467Z,67.73
2017-06-13T00:16:10.816Z,67.16
2017-06-13T00:16:15.239Z,67.83
2017-06-13T00:16:19.424Z,67.54
2017-06-13T00:16:23.846Z,67.16
2017-06-13T00:16:28.269Z,67.73
2017-06-13T00:16:32.581Z,67.92
2017-06-13T00:16:36.889Z,67.16
2017-06-13T00:16:41.191Z,67.25
2017-06-13T00:16:45.618Z,67.16
2017-06-13T00:16:50.037Z,67.25
2017-06-13T00:16:54.459Z,67.25
2017-06-13T00:16:58.888Z,67.44
2017-06-13T00:17:03.673Z,67.25
2017-06-13T00:17:07.748Z,67.16
2017-06-13T00:17:12.169Z,67.25
2017-06-13T00:17:16.595Z,67.54
2017-06-13T00:17:20.907Z,67.73
2017-06-13T00:17:25.374Z,67.73
2017-06-13T00:17:29.792Z,67.73
2017-06-13T00:17:34.096Z,67.54
2017-06-13T00:17:38.514Z,67.63
2017-06-13T00:17:42.823Z,67.63
2017-06-13T00:17:47.248Z,67.54
2017-06-13T00:17:51.549Z,67.54
2017-06-13T00:17:55.974Z,67.54
2017-06-13T00:18:00.395Z,67.54
2017-06-13T00:18:04.819Z,67.44
2017-06-13T00:18:08.892Z,67.54
2017-06-13T00:18:13.318Z,67.44
2017-06-13T00:18:17.621Z,67.63
2017-06-13T00:18:21.933Z,67.35
2017-06-13T00:18:26.235Z,67.25
2017-06-13T00:18:30.668Z,67.35
2017-06-13T00:18:35.120Z,67.44
2017-06-13T00:18:39.306Z,67.25
2017-06-13T00:18:43.724Z,67.35
2017-06-13T00:18:48.142Z,67.25
2017-06-13T00:18:52.567Z,67.44
2017-06-13T00:18:57.003Z,67.25
2017-06-13T00:19:01.731Z,67.44
2017-06-13T00:19:06.039Z,67.35
2017-06-13T00:19:10.343Z,67.25
2017-06-13T00:19:14.760Z,67.44
2017-06-13T00:19:19.194Z,67.35
2017-06-13T00:19:23.647Z,67.44
2017-06-13T00:19:28.064Z,67.54
2017-06-13T00:19:32.487Z,67.44
2017-06-13T00:19:36.917Z,67.44
2017-06-13T00:19:41.225Z,67.44
2017-06-13T00:19:45.653Z,67.44
2017-06-13T00:19:50.081Z,67.44
2017-06-13T00:19:54.502Z,67.73
2017-06-13T00:19:58.929Z,67.83
2017-06-13T00:20:03.236Z,67.92
2017-06-13T00:20:07.540Z,67.73
2017-06-13T00:20:11.737Z,67.73
2017-06-13T00:20:16.159Z,67.73
2017-06-13T00:20:20.475Z,68.02
2017-06-13T00:20:24.898Z,67.63
2017-06-13T00:20:29.319Z,67.92
2017-06-13T00:20:33.747Z,68.21
2017-06-13T00:20:38.173Z,68.12
2017-06-13T00:20:42.598Z,68.21
2017-06-13T00:20:46.911Z,68.3
2017-06-13T00:20:51.210Z,68.02
2017-06-13T00:20:55.633Z,68.21
2017-06-13T00:21:00.067Z,68.3
2017-06-13T00:21:04.679Z,68.21
2017-06-13T00:21:09.096Z,68.21
2017-06-13T00:21:13.401Z,68.12
2017-06-13T00:21:17.710Z,68.02
2017-06-13T00:21:21.903Z,68.12
2017-06-13T00:21:26.094Z,68.02
2017-06-13T00:21:30.512Z,67.92
2017-06-13T00:21:34.932Z,68.02
2017-06-13T00:21:39.359Z,67.92
2017-06-13T00:21:43.787Z,67.92
2017-06-13T00:21:48.210Z,67.92
2017-06-13T00:21:52.636Z,68.12
2017-06-13T00:21:57.061Z,68.02
2017-06-13T00:22:01.486Z,67.92
2017-06-13T00:22:05.792Z,68.12
2017-06-13T00:22:10.251Z,67.83
2017-06-13T00:22:14.561Z,67.92
2017-06-13T00:22:18.868Z,68.02
2017-06-13T00:22:23.178Z,67.73
2017-06-13T00:22:27.494Z,68.02
2017-06-13T00:22:31.947Z,68.3
2017-06-13T00:22:36.260Z,68.3
2017-06-13T00:22:40.562Z,68.21
2017-06-13T00:22:44.866Z,68.02
2017-06-13T00:22:49.288Z,68.3
2017-06-13T00:22:53.602Z,67.92
2017-06-13T00:22:58.030Z,67.92
2017-06-13T00:23:02.653Z,67.92
2017-06-13T00:23:07.072Z,67.92
2017-06-13T00:23:11.490Z,67.83
2017-06-13T00:23:15.801Z,67.92
2017-06-13T00:23:20.107Z,67.92
2017-06-13T00:23:24.530Z,67.73
2017-06-13T00:23:28.963Z,68.02
2017-06-13T00:23:33.270Z,68.02
2017-06-13T00:23:37.701Z,68.02
2017-06-13T00:23:42.130Z,68.02
2017-06-13T00:23:46.553Z,67.73
2017-06-13T00:23:50.982Z,67.92
2017-06-13T00:23:55.406Z,68.21
2017-06-13T00:23:59.826Z,68.02
2017-06-13T00:24:04.138Z,68.4
2017-06-13T00:24:08.476Z,68.21
2017-06-13T00:24:12.659Z,68.3
2017-06-13T00:24:16.962Z,68.12
2017-06-13T00:24:21.382Z,67.92
2017-06-13T00:24:25.689Z,68.02
2017-06-13T00:24:29.996Z,68.12
2017-06-13T00:24:34.412Z,68.12
2017-06-13T00:24:38.715Z,68.3
2017-06-13T00:24:43.135Z,68.02
2017-06-13T00:24:47.563Z,67.73
2017-06-13T00:24:51.873Z,67.92
2017-06-13T00:24:56.297Z,67.92
2017-06-13T00:25:00.724Z,67.73
2017-06-13T00:25:05.149Z,67.63
2017-06-13T00:25:09.453Z,67.83
2017-06-13T00:25:13.784Z,67.83
2017-06-13T00:25:17.973Z,67.25
2017-06-13T00:25:22.399Z,67.44
2017-06-13T00:25:26.586Z,67.92
2017-06-13T00:25:30.891Z,67.63
2017-06-13T00:25:35.334Z,67.63
2017-06-13T00:25:39.769Z,67.73
2017-06-13T00:25:44.188Z,67.25
2017-06-13T00:25:48.611Z,67.25
2017-06-13T00:25:52.919Z,67.25
2017-06-13T00:25:57.348Z,67.25
2017-06-13T00:26:01.655Z,67.25
2017-06-13T00:26:05.964Z,67.25
2017-06-13T00:26:10.382Z,67.44
2017-06-13T00:26:14.682Z,67.25
2017-06-13T00:26:18.995Z,67.44
2017-06-13T00:26:23.420Z,67.44
2017-06-13T00:26:27.843Z,67.92
2017-06-13T00:26:32.268Z,67.25
2017-06-13T00:26:36.690Z,67.44
2017-06-13T00:26:41.115Z,67.25
2017-06-13T00:26:45.542Z,67.35
2017-06-13T00:26:49.850Z,67.44
2017-06-13T00:26:54.153Z,67.44
2017-06-13T00:26:58.457Z,67.63
2017-06-13T00:27:03.180Z,67.44
2017-06-13T00:27:07.488Z,67.63
2017-06-13T00:27:11.946Z,67.54
2017-06-13T00:27:16.262Z,67.54
2017-06-13T00:27:20.683Z,67.35
2017-06-13T00:27:25.105Z,67.83
2017-06-13T00:27:29.531Z,67.73
2017-06-13T00:27:34.003Z,67.73
2017-06-13T00:27:38.421Z,67.73
2017-06-13T00:27:42.840Z,67.73
2017-06-13T00:27:47.266Z,67.54
2017-06-13T00:27:51.573Z,67.73
2017-06-13T00:27:56.002Z,67.83
2017-06-13T00:28:00.309Z,67.54
2017-06-13T00:28:04.728Z,67.35
2017-06-13T00:28:09.031Z,67.63
2017-06-13T00:28:13.447Z,67.35
2017-06-13T00:28:17.757Z,67.35
2017-06-13T00:28:22.219Z,67.25
2017-06-13T00:28:26.656Z,67.25
2017-06-13T00:28:30.964Z,67.63
2017-06-13T00:28:35.388Z,67.54
2017-06-13T00:28:39.809Z,67.44
2017-06-13T00:28:43.995Z,67.44
2017-06-13T00:28:48.419Z,67.35
2017-06-13T00:28:52.616Z,67.25
2017-06-13T00:28:57.035Z,67.73
2017-06-13T00:29:01.341Z,67.63
2017-06-13T00:29:05.766Z,68.02
2017-06-13T00:29:10.198Z,67.83
2017-06-13T00:29:14.619Z,67.92
2017-06-13T00:29:18.807Z,68.21
2017-06-13T00:29:23.227Z,68.21
2017-06-13T00:29:27.645Z,68.21
2017-06-13T00:29:32.066Z,68.21
2017-06-13T00:29:36.492Z,68.21
2017-06-13T00:29:40.914Z,68.02
2017-06-13T00:29:45.217Z,67.92
2017-06-13T00:29:49.640Z,68.21
2017-06-13T00:29:53.948Z,68.12
2017-06-13T00:29:58.388Z,67.92
2017-06-13T00:30:02.572Z,68.02
2017-06-13T00:30:06.878Z,68.12
2017-06-13T00:30:11.301Z,68.02
2017-06-13T00:30:15.728Z,67.92
2017-06-13T00:30:20.157Z,68.4
2017-06-13T00:30:24.574Z,68.21
2017-06-13T00:30:28.897Z,68.21
2017-06-13T00:30:33.322Z,67.92
2017-06-13T00:30:37.746Z,68.21
2017-06-13T00:30:42.051Z,67.92
2017-06-13T00:30:46.479Z,68.12
2017-06-13T00:30:50.906Z,68.21
2017-06-13T00:30:55.329Z,68.21
2017-06-13T00:30:59.749Z,67.92
2017-06-13T00:31:04.174Z,67.92
2017-06-13T00:31:08.604Z,67.92
2017-06-13T00:31:13.037Z,67.92
2017-06-13T00:31:17.336Z,67.73
2017-06-13T00:31:21.523Z,67.73
2017-06-13T00:31:25.949Z,67.73
2017-06-13T00:31:30.390Z,67.25
2017-06-13T00:31:34.811Z,67.35
2017-06-13T00:31:39.226Z,67.44
2017-06-13T00:31:43.525Z,67.44
2017-06-13T00:31:47.951Z,67.44
2017-06-13T00:31:52.375Z,67.35
2017-06-13T00:31:56.686Z,67.44
2017-06-13T00:32:01.114Z,67.54
2017-06-13T00:32:05.417Z,67.44
2017-06-13T00:32:09.723Z,67.44
2017-06-13T00:32:14.141Z,67.54
2017-06-13T00:32:18.579Z,67.73
2017-06-13T00:32:22.764Z,67.63
2017-06-13T00:32:27.188Z,67.54
2017-06-13T00:32:31.609Z,67.73
2017-06-13T00:32:35.918Z,67.63
2017-06-13T00:32:40.342Z,67.63
2017-06-13T00:32:44.794Z,67.54
2017-06-13T00:32:49.110Z,67.54
2017-06-13T00:32:53.730Z,67.35
2017-06-13T00:32:58.147Z,67.35
2017-06-13T00:33:02.510Z,67.83
2017-06-13T00:33:06.938Z,67.83
2017-06-13T00:33:11.391Z,67.25
2017-06-13T00:33:15.696Z,67.83
2017-06-13T00:33:19.997Z,67.92
2017-06-13T00:33:24.422Z,67.92
2017-06-13T00:33:28.844Z,67.83
2017-06-13T00:33:33.274Z,67.83
2017-06-13T00:33:37.695Z,67.83
2017-06-13T00:33:41.996Z,67.92
2017-06-13T00:33:46.424Z,67.83
2017-06-13T00:33:50.846Z,67.73
2017-06-13T00:33:55.268Z,67.63
2017-06-13T00:33:59.696Z,67.44
2017-06-13T00:34:04.253Z,67.35
2017-06-13T00:34:08.567Z,67.25
2017-06-13T00:34:12.987Z,67.44
2017-06-13T00:34:17.405Z,67.44
2017-06-13T00:34:21.598Z,67.35
2017-06-13T00:34:25.803Z,67.35
2017-06-13T00:34:29.988Z,67.35
2017-06-13T00:34:34.417Z,67.35
2017-06-13T00:34:38.839Z,67.35
2017-06-13T00:34:43.261Z,67.73
2017-06-13T00:34:47.690Z,67.44
2017-06-13T00:34:52.115Z,67.44
2017-06-13T00:34:56.541Z,67.63
2017-06-13T00:35:00.963Z,67.73
2017-06-13T00:35:05.271Z,67.54
2017-06-13T00:35:09.699Z,67.63
2017-06-13T00:35:14.132Z,67.63
2017-06-13T00:35:18.452Z,67.54
2017-06-13T00:35:22.753Z,67.35
2017-06-13T00:35:26.823Z,67.44
2017-06-13T00:35:31.246Z,67.44
2017-06-13T00:35:35.552Z,67.35
2017-06-13T00:35:40.014Z,67.83
2017-06-13T00:35:44.319Z,67.83
2017-06-13T00:35:48.737Z,67.25
2017-06-13T00:35:53.163Z,67.44
2017-06-13T00:35:57.584Z,67.44
2017-06-13T00:36:02.013Z,67.44
2017-06-13T00:36:06.322Z,67.63
2017-06-13T00:36:10.634Z,67.63
2017-06-13T00:36:14.935Z,67.63
2017-06-13T00:36:19.356Z,67.54
2017-06-13T00:36:23.780Z,67.63
2017-06-13T00:36:28.119Z,67.73
2017-06-13T00:36:32.543Z,67.73
2017-06-13T00:36:36.852Z,67.73
2017-06-13T00:36:41.275Z,67.63
2017-06-13T00:36:45.698Z,67.63
2017-06-13T00:36:50.016Z,67.54
2017-06-13T00:36:54.439Z,67.63
2017-06-13T00:36:58.861Z,67.63
2017-06-13T00:37:03.159Z,67.63
2017-06-13T00:37:07.346Z,67.54
2017-06-13T00:37:11.776Z,67.73
2017-06-13T00:37:16.209Z,67.54
2017-06-13T00:37:20.517Z,67.54
2017-06-13T00:37:24.939Z,67.73
2017-06-13T00:37:29.125Z,67.73
2017-06-13T00:37:33.551Z,67.73
2017-06-13T00:37:37.980Z,67.83
2017-06-13T00:37:42.432Z,67.73
2017-06-13T00:37:46.740Z,67.83
2017-06-13T00:37:51.157Z,67.63
2017-06-13T00:37:55.580Z,67.25
2017-06-13T00:37:59.765Z,67.35
2017-06-13T00:38:04.196Z,66.96
2017-06-13T00:38:08.506Z,67.25
2017-06-13T00:38:12.814Z,67.06
2017-06-13T00:38:17.244Z,67.25
2017-06-13T00:38:21.551Z,67.25
2017-06-13T00:38:26.023Z,67.25
2017-06-13T00:38:30.324Z,67.25
2017-06-13T00:38:34.628Z,67.35
2017-06-13T00:38:39.053Z,67.25
2017-06-13T00:38:43.479Z,67.35
2017-06-13T00:38:47.906Z,67.35
2017-06-13T00:38:52.100Z,67.35
2017-06-13T00:38:56.529Z,67.35
2017-06-13T00:39:00.952Z,67.44
2017-06-13T00:39:05.624Z,67.16
2017-06-13T00:39:09.928Z,67.25
2017-06-13T00:39:14.357Z,67.16
2017-06-13T00:39:18.677Z,67.35
2017-06-13T00:39:22.977Z,67.25
2017-06-13T00:39:27.300Z,67.35
2017-06-13T00:39:31.721Z,67.25
2017-06-13T00:39:35.912Z,67.35
2017-06-13T00:39:40.342Z,67.25
2017-06-13T00:39:44.766Z,67.35
2017-06-13T00:39:49.184Z,67.25
2017-06-13T00:39:53.603Z,67.25
2017-06-13T00:39:58.020Z,67.35
2017-06-13T00:40:02.445Z,67.25
2017-06-13T00:40:06.761Z,67.25
2017-06-13T00:40:11.074Z,67.73
2017-06-13T00:40:15.494Z,67.54
2017-06-13T00:40:19.911Z,67.54
2017-06-13T00:40:24.217Z,67.54
2017-06-13T00:40:28.416Z,67.44
2017-06-13T00:40:32.599Z,67.35
2017-06-13T00:40:37.022Z,67.54
2017-06-13T00:40:41.447Z,67.54
2017-06-13T00:40:45.760Z,67.63
2017-06-13T00:40:50.084Z,67.73
2017-06-13T00:40:54.507Z,67.54
2017-06-13T00:40:58.932Z,67.16
2017-06-13T00:41:03.352Z,67.44
2017-06-13T00:41:07.774Z,67.35
2017-06-13T00:41:12.085Z,67.06
2017-06-13T00:41:16.536Z,67.25
2017-06-13T00:41:20.964Z,67.25
2017-06-13T00:41:25.145Z,67.35
2017-06-13T00:41:29.330Z,67.25
2017-06-13T00:41:33.753Z,67.25
2017-06-13T00:41:38.099Z,67.16
2017-06-13T00:41:42.531Z,67.35
2017-06-13T00:41:46.954Z,67.25
2017-06-13T00:41:51.373Z,67.35
2017-06-13T00:41:55.673Z,67.44
2017-06-13T00:42:00.093Z,67.16
2017-06-13T00:42:04.571Z,67.35
2017-06-13T00:42:08.872Z,67.35
2017-06-13T00:42:13.174Z,67.35
2017-06-13T00:42:17.241Z,67.25
2017-06-13T00:42:21.664Z,67.25
2017-06-13T00:42:25.998Z,67.06
2017-06-13T00:42:30.306Z,67.06
2017-06-13T00:42:34.505Z,67.44
2017-06-13T00:42:38.927Z,67.44
2017-06-13T00:42:43.358Z,67.44
2017-06-13T00:42:47.785Z,67.35
2017-06-13T00:42:52.238Z,67.16
2017-06-13T00:42:56.662Z,67.44
2017-06-13T00:43:01.091Z,67.35
2017-06-13T00:43:05.662Z,67.16
2017-06-13T00:43:09.969Z,67.63
2017-06-13T00:43:14.395Z,67.73
2017-06-13T00:43:18.818Z,67.35
2017-06-13T00:43:23.244Z,67.35
2017-06-13T00:43:27.672Z,67.73
2017-06-13T00:43:31.974Z,67.35
2017-06-13T00:43:36.173Z,67.35
2017-06-13T00:43:40.599Z,67.35
2017-06-13T00:43:44.907Z,67.35
2017-06-13T00:43:49.333Z,67.35
2017-06-13T00:43:53.751Z,67.35
2017-06-13T00:43:58.062Z,67.35
2017-06-13T00:44:02.526Z,67.73
2017-06-13T00:44:06.598Z,67.73
2017-06-13T00:44:11.016Z,67.54
2017-06-13T00:44:15.442Z,67.54
2017-06-13T00:44:19.636Z,67.16
2017-06-13T00:44:24.096Z,67.35
2017-06-13T00:44:28.399Z,67.25
2017-06-13T00:44:32.824Z,67.25
2017-06-13T00:44:37.014Z,67.25
2017-06-13T00:44:41.439Z,67.16
2017-06-13T00:44:45.745Z,67.25
2017-06-13T00:44:50.214Z,67.35
2017-06-13T00:44:54.635Z,67.25
2017-06-13T00:44:58.826Z,67.35
2017-06-13T00:45:03.247Z,67.25
2017-06-13T00:45:07.669Z,67.44
2017-06-13T00:45:12.000Z,67.54
2017-06-13T00:45:16.433Z,67.25
2017-06-13T00:45:20.855Z,67.25
2017-06-13T00:45:25.273Z,67.06
2017-06-13T00:45:29.700Z,67.35
2017-06-13T00:45:34.016Z,67.25
2017-06-13T00:45:38.079Z,67.35
2017-06-13T00:45:42.501Z,67.35
2017-06-13T00:45:46.804Z,66.96
2017-06-13T00:45:51.107Z,66.86
2017-06-13T00:45:55.419Z,66.96
2017-06-13T00:45:59.847Z,66.86
2017-06-13T00:46:04.274Z,66.67
2017-06-13T00:46:08.578Z,66.77
2017-06-13T00:46:12.882Z,66.67
2017-06-13T00:46:17.194Z,66.58
2017-06-13T00:46:21.620Z,66.86
2017-06-13T00:46:25.926Z,66.86
2017-06-13T00:46:30.346Z,66.77
2017-06-13T00:46:34.766Z,66.86
2017-06-13T00:46:38.956Z,66.96
2017-06-13T00:46:43.387Z,66.96
2017-06-13T00:46:47.808Z,66.96
2017-06-13T00:46:52.234Z,66.96
2017-06-13T00:46:56.664Z,66.77
2017-06-13T00:47:01.086Z,66.77
2017-06-13T00:47:05.392Z,66.77
2017-06-13T00:47:09.820Z,66.58
2017-06-13T00:47:14.166Z,66.77
2017-06-13T00:47:18.470Z,66.58
2017-06-13T00:47:22.894Z,66.58
2017-06-13T00:47:27.318Z,66.77
2017-06-13T00:47:31.746Z,66.86
2017-06-13T00:47:35.940Z,66.96
2017-06-13T00:47:40.360Z,66.96
2017-06-13T00:47:44.674Z,66.96
2017-06-13T00:47:49.101Z,66.86
2017-06-13T00:47:53.520Z,66.86
2017-06-13T00:47:57.948Z,66.86
2017-06-13T00:48:02.505Z,66.96
2017-06-13T00:48:06.930Z,67.06
2017-06-13T00:48:11.350Z,66.86
2017-06-13T00:48:15.660Z,67.06
2017-06-13T00:48:20.087Z,66.77
2017-06-13T00:48:24.550Z,66.67
2017-06-13T00:48:28.853Z,66.96
2017-06-13T00:48:33.158Z,66.96
2017-06-13T00:48:37.460Z,66.86
2017-06-13T00:48:41.771Z,66.86
2017-06-13T00:48:46.116Z,66.86
2017-06-13T00:48:50.540Z,66.86
2017-06-13T00:48:54.962Z,66.86
2017-06-13T00:48:59.385Z,67.06
2017-06-13T00:49:04.109Z,67.35
2017-06-13T00:49:08.530Z,67.06
2017-06-13T00:49:12.994Z,66.67
2017-06-13T00:49:17.303Z,66.67
2017-06-13T00:49:21.720Z,67.25
2017-06-13T00:49:25.925Z,66.58
2017-06-13T00:49:30.347Z,66.77
2017-06-13T00:49:34.778Z,66.67
2017-06-13T00:49:39.081Z,66.67
2017-06-13T00:49:43.502Z,66.67
2017-06-13T00:49:47.811Z,66.39
2017-06-13T00:49:52.229Z,66.58
2017-06-13T00:49:56.651Z,66.58
2017-06-13T00:50:01.077Z,66.49
2017-06-13T00:50:05.390Z,66.58
2017-06-13T00:50:09.704Z,66.77
2017-06-13T00:50:14.127Z,66.58
2017-06-13T00:50:18.316Z,66.58
2017-06-13T00:50:22.748Z,66.49
2017-06-13T00:50:27.051Z,66.49
2017-06-13T00:50:31.483Z,66.67
2017-06-13T00:50:35.788Z,66.39
2017-06-13T00:50:39.979Z,66.61
2017-06-13T00:50:44.415Z,66.42
2017-06-13T00:50:48.845Z,66.1
2017-06-13T00:50:53.274Z,66.29
2017-06-13T00:50:57.692Z,66.19
2017-06-13T00:51:02.113Z,66.19
2017-06-13T00:51:06.416Z,66.1
2017-06-13T00:51:10.733Z,66.1
2017-06-13T00:51:15.158Z,66.29
2017-06-13T00:51:19.580Z,66.33
2017-06-13T00:51:23.891Z,66.33
2017-06-13T00:51:28.320Z,66.52
2017-06-13T00:51:32.752Z,66.33
2017-06-13T00:51:37.059Z,66.49
2017-06-13T00:51:41.016Z,66.49
2017-06-13T00:51:45.435Z,66.33
2017-06-13T00:51:49.855Z,66.33
2017-06-13T00:51:54.276Z,65.91
2017-06-13T00:51:58.700Z,66.19
2017-06-13T00:52:03.148Z,65.94
2017-06-13T00:52:07.217Z,65.91
2017-06-13T00:52:11.642Z,65.81
2017-06-13T00:52:15.947Z,65.75
2017-06-13T00:52:20.372Z,66
2017-06-13T00:52:24.836Z,65.94
2017-06-13T00:52:29.142Z,65.91
2017-06-13T00:52:33.568Z,66.13
2017-06-13T00:52:37.869Z,66.13
2017-06-13T00:52:41.937Z,66.13
2017-06-13T00:52:46.362Z,65.94
2017-06-13T00:52:50.784Z,65.94
2017-06-13T00:52:55.204Z,65.94
2017-06-13T00:52:59.627Z,66.19
2017-06-13T00:53:03.941Z,66.23
2017-06-13T00:53:08.254Z,66.03
2017-06-13T00:53:12.687Z,66.19
2017-06-13T00:53:16.997Z,66.23
2017-06-13T00:53:21.297Z,66.33
2017-06-13T00:53:25.604Z,66.13
2017-06-13T00:53:30.032Z,66.42
2017-06-13T00:53:34.225Z,66.52
2017-06-13T00:53:38.645Z,66.52
2017-06-13T00:53:42.714Z,66.52
2017-06-13T00:53:47.022Z,66.03
2017-06-13T00:53:51.443Z,65.84
2017-06-13T00:53:55.755Z,66.03
2017-06-13T00:54:00.192Z,66.03
2017-06-13T00:54:04.659Z,65.84
2017-06-13T00:54:08.966Z,65.84
2017-06-13T00:54:13.387Z,66.13
2017-06-13T00:54:17.820Z,66.03
2017-06-13T00:54:22.037Z,66.13
2017-06-13T00:54:26.364Z,66.23
2017-06-13T00:54:30.793Z,66.03
2017-06-13T00:54:35.098Z,65.94
2017-06-13T00:54:39.404Z,66.23
2017-06-13T00:54:43.717Z,65.84
2017-06-13T00:54:48.148Z,65.84
2017-06-13T00:54:52.458Z,66.13
2017-06-13T00:54:56.524Z,65.94
2017-06-13T00:55:00.943Z,65.84
2017-06-13T00:55:05.253Z,65.84
2017-06-13T00:55:09.679Z,66.03
2017-06-13T00:55:14.106Z,65.84
2017-06-13T00:55:18.408Z,66.03
2017-06-13T00:55:22.834Z,66.03
2017-06-13T00:55:27.026Z,66.03
2017-06-13T00:55:31.450Z,65.94
2017-06-13T00:55:35.756Z,65.94
2017-06-13T00:55:40.055Z,66.03
2017-06-13T00:55:44.362Z,65.84
2017-06-13T00:55:48.782Z,66.03
2017-06-13T00:55:52.972Z,66.13
2017-06-13T00:55:57.298Z,66.13
2017-06-13T00:56:01.728Z,66.03
2017-06-13T00:56:06.360Z,66.13
2017-06-13T00:56:10.666Z,66.03
2017-06-13T00:56:14.853Z,66.03
2017-06-13T00:56:19.176Z,66.03